sensor_id;sensor_type;location;lat;lon;timestamp;P1;durP1;ratioP1;P2;durP2;ratioP2
11344;SDS011;5727;42.600;23.028;2022-08-19T00:00:07;7.07;;;5.13;;
11344;SDS011;5727;42.600;23.028;2022-08-19T00:02:36;7.93;;;5.23;;
11344;SDS011;5727;42.600;23.028;2022-08-19T00:05:03;7.77;;;5.07;;
11344;SDS011;5727;42.600;23.028;2022-08-19T00:07:31;11.17;;;5.53;;
11344;SDS011;5727;42.600;23.028;2022-08-19T00:09:57;8.87;;;4.97;;
11344;SDS011;5727;42.600;23.028;2022-08-19T00:12:24;11.67;;;5.07;;
11344;SDS011;5727;42.600;23.028;2022-08-19T00:14:53;9.40;;;4.50;;
11344;SDS011;5727;42.600;23.028;2022-08-19T00:17:20;8.87;;;4.80;;
11344;SDS011;5727;42.600;23.028;2022-08-19T00:19:47;5.50;;;4.57;;
11344;SDS011;5727;42.600;23.028;2022-08-19T00:22:14;8.80;;;4.40;;
11344;SDS011;5727;42.600;23.028;2022-08-19T00:24:41;9.67;;;5.30;;
11344;SDS011;5727;42.600;23.028;2022-08-19T00:27:08;6.93;;;5.20;;
11344;SDS011;5727;42.600;23.028;2022-08-19T00:29:35;8.23;;;5.10;;
11344;SDS011;5727;42.600;23.028;2022-08-19T00:32:04;9.50;;;4.63;;
11344;SDS011;5727;42.600;23.028;2022-08-19T00:34:31;6.93;;;5.00;;
11344;SDS011;5727;42.600;23.028;2022-08-19T00:36:58;7.13;;;5.40;;
11344;SDS011;5727;42.600;23.028;2022-08-19T00:39:25;5.63;;;4.90;;
11344;SDS011;5727;42.600;23.028;2022-08-19T00:41:52;8.07;;;5.20;;
11344;SDS011;5727;42.600;23.028;2022-08-19T00:44:20;9.63;;;4.70;;
11344;SDS011;5727;42.600;23.028;2022-08-19T00:46:50;6.67;;;4.77;;
11344;SDS011;5727;42.600;23.028;2022-08-19T00:49:20;7.23;;;5.10;;
11344;SDS011;5727;42.600;23.028;2022-08-19T00:51:51;7.97;;;4.93;;
11344;SDS011;5727;42.600;23.028;2022-08-19T00:54:21;7.97;;;5.50;;
11344;SDS011;5727;42.600;23.028;2022-08-19T00:56:49;7.20;;;4.60;;
11344;SDS011;5727;42.600;23.028;2022-08-19T00:59:17;5.33;;;4.83;;
11344;SDS011;5727;42.600;23.028;2022-08-19T01:01:45;6.27;;;5.30;;
11344;SDS011;5727;42.600;23.028;2022-08-19T01:04:13;5.03;;;4.53;;
11344;SDS011;5727;42.600;23.028;2022-08-19T01:06:41;5.20;;;4.70;;
11344;SDS011;5727;42.600;23.028;2022-08-19T01:09:08;4.87;;;4.37;;
11344;SDS011;5727;42.600;23.028;2022-08-19T01:11:36;5.93;;;4.97;;
11344;SDS011;5727;42.600;23.028;2022-08-19T01:14:06;6.60;;;5.07;;
11344;SDS011;5727;42.600;23.028;2022-08-19T01:16:34;6.97;;;5.03;;
11344;SDS011;5727;42.600;23.028;2022-08-19T01:19:02;7.27;;;5.67;;
11344;SDS011;5727;42.600;23.028;2022-08-19T01:21:38;5.23;;;4.73;;
11344;SDS011;5727;42.600;23.028;2022-08-19T01:24:14;7.77;;;5.33;;
11344;SDS011;5727;42.600;23.028;2022-08-19T01:26:42;6.87;;;5.00;;
11344;SDS011;5727;42.600;23.028;2022-08-19T01:29:10;6.00;;;4.80;;
11344;SDS011;5727;42.600;23.028;2022-08-19T01:31:37;5.47;;;4.83;;
11344;SDS011;5727;42.600;23.028;2022-08-19T01:34:04;9.13;;;5.50;;
11344;SDS011;5727;42.600;23.028;2022-08-19T01:36:34;5.87;;;5.20;;
11344;SDS011;5727;42.600;23.028;2022-08-19T01:39:04;8.10;;;5.63;;
11344;SDS011;5727;42.600;23.028;2022-08-19T01:41:35;9.00;;;5.27;;
11344;SDS011;5727;42.600;23.028;2022-08-19T01:44:03;6.83;;;5.10;;
11344;SDS011;5727;42.600;23.028;2022-08-19T01:46:31;6.00;;;4.70;;
11344;SDS011;5727;42.600;23.028;2022-08-19T01:48:58;6.23;;;5.40;;
11344;SDS011;5727;42.600;23.028;2022-08-19T01:51:25;6.50;;;5.30;;
11344;SDS011;5727;42.600;23.028;2022-08-19T01:53:53;6.30;;;5.30;;
11344;SDS011;5727;42.600;23.028;2022-08-19T01:56:20;6.53;;;4.87;;
11344;SDS011;5727;42.600;23.028;2022-08-19T01:58:49;7.07;;;5.23;;
11344;SDS011;5727;42.600;23.028;2022-08-19T02:01:19;6.50;;;5.43;;
11344;SDS011;5727;42.600;23.028;2022-08-19T02:03:46;6.93;;;5.63;;
11344;SDS011;5727;42.600;23.028;2022-08-19T02:06:12;6.23;;;5.63;;
11344;SDS011;5727;42.600;23.028;2022-08-19T02:08:42;12.10;;;6.03;;
11344;SDS011;5727;42.600;23.028;2022-08-19T02:11:17;11.47;;;6.30;;
11344;SDS011;5727;42.600;23.028;2022-08-19T02:13:45;7.43;;;5.80;;
11344;SDS011;5727;42.600;23.028;2022-08-19T02:16:13;9.27;;;5.30;;
11344;SDS011;5727;42.600;23.028;2022-08-19T02:18:40;6.20;;;5.23;;
11344;SDS011;5727;42.600;23.028;2022-08-19T02:21:07;7.73;;;5.70;;
11344;SDS011;5727;42.600;23.028;2022-08-19T02:23:33;6.60;;;5.63;;
11344;SDS011;5727;42.600;23.028;2022-08-19T02:26:00;6.30;;;5.67;;
11344;SDS011;5727;42.600;23.028;2022-08-19T02:28:27;8.97;;;5.50;;
11344;SDS011;5727;42.600;23.028;2022-08-19T02:30:54;6.33;;;5.60;;
11344;SDS011;5727;42.600;23.028;2022-08-19T02:33:22;7.50;;;5.60;;
11344;SDS011;5727;42.600;23.028;2022-08-19T02:35:48;6.17;;;5.50;;
11344;SDS011;5727;42.600;23.028;2022-08-19T02:38:15;8.67;;;5.90;;
11344;SDS011;5727;42.600;23.028;2022-08-19T02:40:55;9.13;;;6.30;;
11344;SDS011;5727;42.600;23.028;2022-08-19T02:43:23;7.90;;;6.50;;
11344;SDS011;5727;42.600;23.028;2022-08-19T02:45:51;7.27;;;6.57;;
11344;SDS011;5727;42.600;23.028;2022-08-19T02:48:19;6.53;;;5.87;;
11344;SDS011;5727;42.600;23.028;2022-08-19T02:50:49;7.40;;;6.43;;
11344;SDS011;5727;42.600;23.028;2022-08-19T02:53:20;8.33;;;6.03;;
11344;SDS011;5727;42.600;23.028;2022-08-19T02:55:48;7.77;;;6.43;;
11344;SDS011;5727;42.600;23.028;2022-08-19T02:58:16;9.03;;;6.90;;
11344;SDS011;5727;42.600;23.028;2022-08-19T03:00:44;11.03;;;6.47;;
11344;SDS011;5727;42.600;23.028;2022-08-19T03:03:12;6.70;;;6.10;;
11344;SDS011;5727;42.600;23.028;2022-08-19T03:05:39;12.93;;;5.87;;
11344;SDS011;5727;42.600;23.028;2022-08-19T03:08:08;6.43;;;5.47;;
11344;SDS011;5727;42.600;23.028;2022-08-19T03:10:41;6.90;;;5.40;;
11344;SDS011;5727;42.600;23.028;2022-08-19T03:13:10;8.90;;;5.60;;
11344;SDS011;5727;42.600;23.028;2022-08-19T03:15:39;9.27;;;5.93;;
11344;SDS011;5727;42.600;23.028;2022-08-19T03:18:06;6.63;;;5.70;;
11344;SDS011;5727;42.600;23.028;2022-08-19T03:20:34;6.97;;;5.10;;
11344;SDS011;5727;42.600;23.028;2022-08-19T03:23:05;8.57;;;5.83;;
11344;SDS011;5727;42.600;23.028;2022-08-19T03:25:37;6.87;;;5.57;;
11344;SDS011;5727;42.600;23.028;2022-08-19T03:28:05;7.60;;;5.73;;
11344;SDS011;5727;42.600;23.028;2022-08-19T03:30:32;7.63;;;6.90;;
11344;SDS011;5727;42.600;23.028;2022-08-19T03:32:59;7.87;;;6.30;;
11344;SDS011;5727;42.600;23.028;2022-08-19T03:35:26;9.80;;;6.60;;
11344;SDS011;5727;42.600;23.028;2022-08-19T03:37:53;6.93;;;6.23;;
11344;SDS011;5727;42.600;23.028;2022-08-19T03:40:21;10.07;;;6.83;;
11344;SDS011;5727;42.600;23.028;2022-08-19T03:42:49;8.37;;;6.27;;
11344;SDS011;5727;42.600;23.028;2022-08-19T03:45:16;10.27;;;6.97;;
11344;SDS011;5727;42.600;23.028;2022-08-19T03:47:43;7.27;;;6.20;;
11344;SDS011;5727;42.600;23.028;2022-08-19T03:50:10;10.40;;;6.23;;
11344;SDS011;5727;42.600;23.028;2022-08-19T03:52:37;8.10;;;6.10;;
11344;SDS011;5727;42.600;23.028;2022-08-19T03:55:04;9.17;;;6.03;;
11344;SDS011;5727;42.600;23.028;2022-08-19T03:57:32;6.43;;;5.77;;
11344;SDS011;5727;42.600;23.028;2022-08-19T04:00:03;8.73;;;6.70;;
11344;SDS011;5727;42.600;23.028;2022-08-19T04:02:31;6.20;;;5.57;;
11344;SDS011;5727;42.600;23.028;2022-08-19T04:04:58;9.30;;;6.37;;
11344;SDS011;5727;42.600;23.028;2022-08-19T04:07:25;10.60;;;6.53;;
11344;SDS011;5727;42.600;23.028;2022-08-19T04:09:51;14.53;;;6.27;;
11344;SDS011;5727;42.600;23.028;2022-08-19T04:12:18;18.90;;;7.47;;
11344;SDS011;5727;42.600;23.028;2022-08-19T04:14:45;12.57;;;5.97;;
11344;SDS011;5727;42.600;23.028;2022-08-19T04:17:14;10.83;;;6.87;;
11344;SDS011;5727;42.600;23.028;2022-08-19T04:19:41;8.10;;;5.90;;
11344;SDS011;5727;42.600;23.028;2022-08-19T04:22:08;10.33;;;6.23;;
11344;SDS011;5727;42.600;23.028;2022-08-19T04:24:36;17.13;;;6.77;;
11344;SDS011;5727;42.600;23.028;2022-08-19T04:27:03;22.07;;;8.13;;
11344;SDS011;5727;42.600;23.028;2022-08-19T04:29:31;11.33;;;7.07;;
11344;SDS011;5727;42.600;23.028;2022-08-19T04:31:58;8.80;;;6.97;;
11344;SDS011;5727;42.600;23.028;2022-08-19T04:34:27;13.10;;;7.90;;
11344;SDS011;5727;42.600;23.028;2022-08-19T04:36:56;18.97;;;7.73;;
11344;SDS011;5727;42.600;23.028;2022-08-19T04:39:25;10.40;;;7.40;;
11344;SDS011;5727;42.600;23.028;2022-08-19T04:42:14;18.13;;;7.67;;
11344;SDS011;5727;42.600;23.028;2022-08-19T04:45:00;11.10;;;7.17;;
11344;SDS011;5727;42.600;23.028;2022-08-19T04:47:27;11.03;;;7.57;;
11344;SDS011;5727;42.600;23.028;2022-08-19T04:49:58;11.67;;;7.47;;
11344;SDS011;5727;42.600;23.028;2022-08-19T04:52:25;7.90;;;7.10;;
11344;SDS011;5727;42.600;23.028;2022-08-19T04:54:52;10.30;;;7.17;;
11344;SDS011;5727;42.600;23.028;2022-08-19T04:57:20;9.90;;;6.67;;
11344;SDS011;5727;42.600;23.028;2022-08-19T04:59:47;8.17;;;7.07;;
11344;SDS011;5727;42.600;23.028;2022-08-19T05:02:14;10.87;;;8.13;;
11344;SDS011;5727;42.600;23.028;2022-08-19T05:04:41;10.10;;;7.40;;
11344;SDS011;5727;42.600;23.028;2022-08-19T05:07:09;12.70;;;7.90;;
11344;SDS011;5727;42.600;23.028;2022-08-19T05:09:36;9.90;;;7.03;;
11344;SDS011;5727;42.600;23.028;2022-08-19T05:12:03;11.87;;;7.90;;
11344;SDS011;5727;42.600;23.028;2022-08-19T05:14:31;12.10;;;8.20;;
11344;SDS011;5727;42.600;23.028;2022-08-19T05:16:57;11.63;;;7.53;;
11344;SDS011;5727;42.600;23.028;2022-08-19T05:19:24;15.47;;;8.50;;
11344;SDS011;5727;42.600;23.028;2022-08-19T05:22:18;14.87;;;8.70;;
11344;SDS011;5727;42.600;23.028;2022-08-19T05:25:04;11.23;;;8.57;;
11344;SDS011;5727;42.600;23.028;2022-08-19T05:27:32;13.87;;;8.57;;
11344;SDS011;5727;42.600;23.028;2022-08-19T05:29:59;16.50;;;8.40;;
11344;SDS011;5727;42.600;23.028;2022-08-19T05:32:26;12.43;;;8.53;;
11344;SDS011;5727;42.600;23.028;2022-08-19T05:34:53;15.63;;;9.30;;
11344;SDS011;5727;42.600;23.028;2022-08-19T05:37:21;12.20;;;8.27;;
11344;SDS011;5727;42.600;23.028;2022-08-19T05:39:51;12.87;;;8.63;;
11344;SDS011;5727;42.600;23.028;2022-08-19T05:42:19;16.73;;;8.67;;
11344;SDS011;5727;42.600;23.028;2022-08-19T05:44:47;14.33;;;8.70;;
11344;SDS011;5727;42.600;23.028;2022-08-19T05:47:14;11.93;;;7.67;;
11344;SDS011;5727;42.600;23.028;2022-08-19T05:49:43;11.10;;;7.40;;
11344;SDS011;5727;42.600;23.028;2022-08-19T05:52:11;10.10;;;7.10;;
11344;SDS011;5727;42.600;23.028;2022-08-19T05:54:42;11.33;;;7.43;;
11344;SDS011;5727;42.600;23.028;2022-08-19T05:57:12;17.43;;;7.73;;
11344;SDS011;5727;42.600;23.028;2022-08-19T05:59:40;14.77;;;7.77;;
11344;SDS011;5727;42.600;23.028;2022-08-19T06:02:07;19.83;;;8.57;;
11344;SDS011;5727;42.600;23.028;2022-08-19T06:04:33;23.00;;;8.57;;
11344;SDS011;5727;42.600;23.028;2022-08-19T06:07:00;16.47;;;7.80;;
11344;SDS011;5727;42.600;23.028;2022-08-19T06:09:27;17.87;;;7.70;;
11344;SDS011;5727;42.600;23.028;2022-08-19T06:11:57;12.40;;;6.63;;
11344;SDS011;5727;42.600;23.028;2022-08-19T06:14:25;13.27;;;7.70;;
11344;SDS011;5727;42.600;23.028;2022-08-19T06:16:53;14.00;;;7.57;;
11344;SDS011;5727;42.600;23.028;2022-08-19T06:19:21;10.93;;;7.47;;
11344;SDS011;5727;42.600;23.028;2022-08-19T06:21:49;10.00;;;6.53;;
11344;SDS011;5727;42.600;23.028;2022-08-19T06:24:19;15.57;;;7.57;;
11344;SDS011;5727;42.600;23.028;2022-08-19T06:26:48;15.37;;;7.10;;
11344;SDS011;5727;42.600;23.028;2022-08-19T06:29:17;7.40;;;6.43;;
11344;SDS011;5727;42.600;23.028;2022-08-19T06:31:46;12.20;;;6.50;;
11344;SDS011;5727;42.600;23.028;2022-08-19T06:34:16;9.70;;;6.80;;
11344;SDS011;5727;42.600;23.028;2022-08-19T06:36:44;10.27;;;6.03;;
11344;SDS011;5727;42.600;23.028;2022-08-19T06:39:13;12.47;;;6.00;;
11344;SDS011;5727;42.600;23.028;2022-08-19T06:41:42;12.23;;;6.17;;
11344;SDS011;5727;42.600;23.028;2022-08-19T06:44:11;8.27;;;5.37;;
11344;SDS011;5727;42.600;23.028;2022-08-19T06:46:40;5.53;;;4.93;;
11344;SDS011;5727;42.600;23.028;2022-08-19T06:49:07;10.80;;;5.77;;
11344;SDS011;5727;42.600;23.028;2022-08-19T06:51:38;49.43;;;9.97;;
11344;SDS011;5727;42.600;23.028;2022-08-19T06:54:06;5.80;;;4.20;;
11344;SDS011;5727;42.600;23.028;2022-08-19T06:56:33;5.63;;;4.10;;
11344;SDS011;5727;42.600;23.028;2022-08-19T06:59:01;9.93;;;4.77;;
11344;SDS011;5727;42.600;23.028;2022-08-19T07:01:29;8.80;;;5.53;;
11344;SDS011;5727;42.600;23.028;2022-08-19T07:03:57;13.13;;;6.03;;
11344;SDS011;5727;42.600;23.028;2022-08-19T07:06:27;8.73;;;5.83;;
11344;SDS011;5727;42.600;23.028;2022-08-19T07:08:56;10.27;;;5.63;;
11344;SDS011;5727;42.600;23.028;2022-08-19T07:11:24;12.27;;;5.23;;
11344;SDS011;5727;42.600;23.028;2022-08-19T07:13:51;7.40;;;5.03;;
11344;SDS011;5727;42.600;23.028;2022-08-19T07:16:18;9.47;;;5.13;;
11344;SDS011;5727;42.600;23.028;2022-08-19T07:18:45;5.77;;;4.77;;
11344;SDS011;5727;42.600;23.028;2022-08-19T07:21:15;6.17;;;4.60;;
11344;SDS011;5727;42.600;23.028;2022-08-19T07:23:43;8.57;;;5.27;;
11344;SDS011;5727;42.600;23.028;2022-08-19T07:26:14;7.70;;;4.83;;
11344;SDS011;5727;42.600;23.028;2022-08-19T07:28:44;7.07;;;5.23;;
11344;SDS011;5727;42.600;23.028;2022-08-19T07:31:13;7.07;;;5.20;;
11344;SDS011;5727;42.600;23.028;2022-08-19T07:33:43;10.60;;;4.90;;
11344;SDS011;5727;42.600;23.028;2022-08-19T07:36:12;6.00;;;4.80;;
11344;SDS011;5727;42.600;23.028;2022-08-19T07:38:42;16.83;;;5.90;;
11344;SDS011;5727;42.600;23.028;2022-08-19T07:41:12;8.17;;;4.90;;
11344;SDS011;5727;42.600;23.028;2022-08-19T07:43:41;9.30;;;4.90;;
11344;SDS011;5727;42.600;23.028;2022-08-19T07:46:08;10.23;;;5.10;;
11344;SDS011;5727;42.600;23.028;2022-08-19T07:48:37;10.63;;;5.73;;
11344;SDS011;5727;42.600;23.028;2022-08-19T07:51:05;6.97;;;4.73;;
11344;SDS011;5727;42.600;23.028;2022-08-19T07:53:33;6.27;;;4.10;;
11344;SDS011;5727;42.600;23.028;2022-08-19T07:56:03;7.83;;;4.27;;
11344;SDS011;5727;42.600;23.028;2022-08-19T07:58:31;9.90;;;4.30;;
11344;SDS011;5727;42.600;23.028;2022-08-19T08:01:00;7.03;;;3.57;;
11344;SDS011;5727;42.600;23.028;2022-08-19T08:03:29;6.77;;;3.33;;
11344;SDS011;5727;42.600;23.028;2022-08-19T08:06:16;10.53;;;4.23;;
11344;SDS011;5727;42.600;23.028;2022-08-19T08:09:00;7.03;;;3.17;;
11344;SDS011;5727;42.600;23.028;2022-08-19T08:11:48;4.50;;;2.53;;
11344;SDS011;5727;42.600;23.028;2022-08-19T08:14:17;4.80;;;3.50;;
11344;SDS011;5727;42.600;23.028;2022-08-19T08:16:46;4.27;;;3.50;;
11344;SDS011;5727;42.600;23.028;2022-08-19T08:19:16;5.47;;;3.27;;
11344;SDS011;5727;42.600;23.028;2022-08-19T08:21:45;6.07;;;3.33;;
11344;SDS011;5727;42.600;23.028;2022-08-19T08:24:12;5.83;;;3.00;;
11344;SDS011;5727;42.600;23.028;2022-08-19T08:26:39;5.67;;;3.43;;
11344;SDS011;5727;42.600;23.028;2022-08-19T08:29:08;5.60;;;3.20;;
11344;SDS011;5727;42.600;23.028;2022-08-19T08:31:38;4.93;;;3.37;;
11344;SDS011;5727;42.600;23.028;2022-08-19T08:34:06;4.80;;;2.97;;
11344;SDS011;5727;42.600;23.028;2022-08-19T08:36:35;5.93;;;3.10;;
11344;SDS011;5727;42.600;23.028;2022-08-19T08:39:06;6.30;;;2.73;;
11344;SDS011;5727;42.600;23.028;2022-08-19T08:41:34;4.53;;;2.97;;
11344;SDS011;5727;42.600;23.028;2022-08-19T08:44:12;7.57;;;3.53;;
11344;SDS011;5727;42.600;23.028;2022-08-19T08:46:45;6.13;;;3.40;;
11344;SDS011;5727;42.600;23.028;2022-08-19T08:49:17;5.03;;;3.10;;
11344;SDS011;5727;42.600;23.028;2022-08-19T08:51:54;4.70;;;3.40;;
11344;SDS011;5727;42.600;23.028;2022-08-19T08:54:28;3.47;;;3.17;;
11344;SDS011;5727;42.600;23.028;2022-08-19T08:56:59;5.82;;;3.00;;
11344;SDS011;5727;42.600;23.028;2022-08-19T08:59:28;5.78;;;3.08;;
11344;SDS011;5727;42.600;23.028;2022-08-19T09:01:58;8.20;;;2.92;;
11344;SDS011;5727;42.600;23.028;2022-08-19T09:04:25;4.38;;;2.72;;
11344;SDS011;5727;42.600;23.028;2022-08-19T09:06:54;4.22;;;2.60;;
11344;SDS011;5727;42.600;23.028;2022-08-19T09:09:30;6.72;;;2.97;;
11344;SDS011;5727;42.600;23.028;2022-08-19T09:12:03;4.35;;;2.95;;
11344;SDS011;5727;42.600;23.028;2022-08-19T09:14:38;5.25;;;2.70;;
11344;SDS011;5727;42.600;23.028;2022-08-19T09:17:12;6.53;;;2.75;;
11344;SDS011;5727;42.600;23.028;2022-08-19T09:19:46;5.28;;;2.58;;
11344;SDS011;5727;42.600;23.028;2022-08-19T09:22:16;3.42;;;2.50;;
11344;SDS011;5727;42.600;23.028;2022-08-19T09:24:46;3.90;;;2.70;;
11344;SDS011;5727;42.600;23.028;2022-08-19T09:27:13;5.43;;;2.78;;
11344;SDS011;5727;42.600;23.028;2022-08-19T09:29:42;3.50;;;2.53;;
11344;SDS011;5727;42.600;23.028;2022-08-19T09:32:08;8.90;;;2.97;;
11344;SDS011;5727;42.600;23.028;2022-08-19T09:34:35;4.25;;;2.35;;
11344;SDS011;5727;42.600;23.028;2022-08-19T09:37:02;4.70;;;2.60;;
11344;SDS011;5727;42.600;23.028;2022-08-19T09:39:30;4.35;;;2.70;;
11344;SDS011;5727;42.600;23.028;2022-08-19T09:41:57;4.35;;;2.33;;
11344;SDS011;5727;42.600;23.028;2022-08-19T09:44:23;2.45;;;2.25;;
11344;SDS011;5727;42.600;23.028;2022-08-19T09:46:52;2.80;;;1.90;;
11344;SDS011;5727;42.600;23.028;2022-08-19T09:49:19;3.67;;;2.45;;
11344;SDS011;5727;42.600;23.028;2022-08-19T09:51:48;7.18;;;2.50;;
11344;SDS011;5727;42.600;23.028;2022-08-19T09:54:16;6.57;;;2.50;;
11344;SDS011;5727;42.600;23.028;2022-08-19T09:56:42;3.10;;;2.60;;
11344;SDS011;5727;42.600;23.028;2022-08-19T09:59:09;4.88;;;2.70;;
11344;SDS011;5727;42.600;23.028;2022-08-19T10:01:37;5.70;;;2.88;;
11344;SDS011;5727;42.600;23.028;2022-08-19T10:04:05;4.70;;;2.50;;
11344;SDS011;5727;42.600;23.028;2022-08-19T10:06:33;3.78;;;2.42;;
11344;SDS011;5727;42.600;23.028;2022-08-19T10:09:03;3.20;;;2.45;;
11344;SDS011;5727;42.600;23.028;2022-08-19T10:11:31;5.50;;;2.40;;
11344;SDS011;5727;42.600;23.028;2022-08-19T10:13:58;3.70;;;2.13;;
11344;SDS011;5727;42.600;23.028;2022-08-19T10:16:25;6.50;;;2.47;;
11344;SDS011;5727;42.600;23.028;2022-08-19T10:18:52;2.50;;;2.30;;
11344;SDS011;5727;42.600;23.028;2022-08-19T10:21:22;4.65;;;2.22;;
11344;SDS011;5727;42.600;23.028;2022-08-19T10:23:52;4.53;;;1.77;;
11344;SDS011;5727;42.600;23.028;2022-08-19T10:26:23;6.85;;;2.58;;
11344;SDS011;5727;42.600;23.028;2022-08-19T10:28:51;3.67;;;2.10;;
11344;SDS011;5727;42.600;23.028;2022-08-19T10:31:19;2.28;;;1.90;;
11344;SDS011;5727;42.600;23.028;2022-08-19T10:33:48;4.18;;;1.98;;
11344;SDS011;5727;42.600;23.028;2022-08-19T10:36:24;3.47;;;2.10;;
11344;SDS011;5727;42.600;23.028;2022-08-19T10:38:53;4.55;;;2.50;;
11344;SDS011;5727;42.600;23.028;2022-08-19T10:41:24;3.70;;;2.45;;
11344;SDS011;5727;42.600;23.028;2022-08-19T10:43:54;5.03;;;1.83;;
11344;SDS011;5727;42.600;23.028;2022-08-19T10:46:23;4.53;;;2.22;;
11344;SDS011;5727;42.600;23.028;2022-08-19T10:48:52;4.28;;;2.47;;
11344;SDS011;5727;42.600;23.028;2022-08-19T10:51:19;4.15;;;2.35;;
11344;SDS011;5727;42.600;23.028;2022-08-19T10:54:05;6.75;;;2.40;;
11344;SDS011;5727;42.600;23.028;2022-08-19T10:56:32;3.28;;;2.30;;
11344;SDS011;5727;42.600;23.028;2022-08-19T10:59:17;4.00;;;2.47;;
11344;SDS011;5727;42.600;23.028;2022-08-19T11:01:45;3.88;;;2.58;;
11344;SDS011;5727;42.600;23.028;2022-08-19T11:04:13;3.90;;;2.70;;
11344;SDS011;5727;42.600;23.028;2022-08-19T11:06:42;5.47;;;2.45;;
11344;SDS011;5727;42.600;23.028;2022-08-19T11:09:11;6.10;;;2.53;;
11344;SDS011;5727;42.600;23.028;2022-08-19T11:11:38;6.43;;;2.83;;
11344;SDS011;5727;42.600;23.028;2022-08-19T11:14:06;3.85;;;2.25;;
11344;SDS011;5727;42.600;23.028;2022-08-19T11:16:33;5.07;;;1.85;;
11344;SDS011;5727;42.600;23.028;2022-08-19T11:19:00;11.85;;;3.03;;
11344;SDS011;5727;42.600;23.028;2022-08-19T11:21:28;4.78;;;2.72;;
11344;SDS011;5727;42.600;23.028;2022-08-19T11:23:57;4.38;;;2.45;;
11344;SDS011;5727;42.600;23.028;2022-08-19T11:26:27;7.72;;;2.50;;
11344;SDS011;5727;42.600;23.028;2022-08-19T11:28:56;3.95;;;2.50;;
11344;SDS011;5727;42.600;23.028;2022-08-19T11:31:24;3.25;;;2.35;;
11344;SDS011;5727;42.600;23.028;2022-08-19T11:33:52;3.63;;;2.33;;
11344;SDS011;5727;42.600;23.028;2022-08-19T11:36:20;5.47;;;1.98;;
11344;SDS011;5727;42.600;23.028;2022-08-19T11:38:47;8.57;;;2.80;;
11344;SDS011;5727;42.600;23.028;2022-08-19T11:41:15;11.63;;;2.50;;
11344;SDS011;5727;42.600;23.028;2022-08-19T11:43:44;4.25;;;2.10;;
11344;SDS011;5727;42.600;23.028;2022-08-19T11:46:12;8.52;;;2.50;;
11344;SDS011;5727;42.600;23.028;2022-08-19T11:48:41;5.18;;;2.90;;
11344;SDS011;5727;42.600;23.028;2022-08-19T11:51:10;5.43;;;2.33;;
11344;SDS011;5727;42.600;23.028;2022-08-19T11:53:39;8.52;;;2.40;;
11344;SDS011;5727;42.600;23.028;2022-08-19T11:56:06;4.88;;;2.97;;
11344;SDS011;5727;42.600;23.028;2022-08-19T11:58:34;7.35;;;3.15;;
11344;SDS011;5727;42.600;23.028;2022-08-19T12:01:06;6.03;;;2.58;;
11344;SDS011;5727;42.600;23.028;2022-08-19T12:03:33;3.20;;;2.63;;
11344;SDS011;5727;42.600;23.028;2022-08-19T12:06:02;7.13;;;2.58;;
11344;SDS011;5727;42.600;23.028;2022-08-19T12:08:30;11.90;;;2.63;;
11344;SDS011;5727;42.600;23.028;2022-08-19T12:10:57;6.53;;;2.33;;
11344;SDS011;5727;42.600;23.028;2022-08-19T12:13:26;5.40;;;2.45;;
11344;SDS011;5727;42.600;23.028;2022-08-19T12:15:53;6.70;;;2.72;;
11344;SDS011;5727;42.600;23.028;2022-08-19T12:18:22;6.50;;;2.60;;
11344;SDS011;5727;42.600;23.028;2022-08-19T12:20:50;5.85;;;2.83;;
11344;SDS011;5727;42.600;23.028;2022-08-19T12:23:21;5.40;;;2.63;;
11344;SDS011;5727;42.600;23.028;2022-08-19T12:25:49;5.85;;;2.60;;
11344;SDS011;5727;42.600;23.028;2022-08-19T12:28:17;4.40;;;2.33;;
11344;SDS011;5727;42.600;23.028;2022-08-19T12:30:45;5.60;;;2.65;;
11344;SDS011;5727;42.600;23.028;2022-08-19T12:33:12;4.03;;;2.33;;
11344;SDS011;5727;42.600;23.028;2022-08-19T12:35:42;6.40;;;3.15;;
11344;SDS011;5727;42.600;23.028;2022-08-19T12:38:12;5.68;;;2.55;;
11344;SDS011;5727;42.600;23.028;2022-08-19T12:40:41;6.60;;;2.75;;
11344;SDS011;5727;42.600;23.028;2022-08-19T12:43:08;4.25;;;2.45;;
11344;SDS011;5727;42.600;23.028;2022-08-19T12:45:37;10.98;;;3.08;;
11344;SDS011;5727;42.600;23.028;2022-08-19T12:48:04;5.20;;;2.75;;
11344;SDS011;5727;42.600;23.028;2022-08-19T12:50:35;6.78;;;2.60;;
11344;SDS011;5727;42.600;23.028;2022-08-19T12:53:03;6.75;;;2.53;;
11344;SDS011;5727;42.600;23.028;2022-08-19T12:55:31;6.38;;;2.45;;
11344;SDS011;5727;42.600;23.028;2022-08-19T12:57:58;3.03;;;2.45;;
11344;SDS011;5727;42.600;23.028;2022-08-19T13:00:26;5.75;;;2.75;;
11344;SDS011;5727;42.600;23.028;2022-08-19T13:02:54;6.97;;;2.83;;
11344;SDS011;5727;42.600;23.028;2022-08-19T13:05:22;6.13;;;2.40;;
11344;SDS011;5727;42.600;23.028;2022-08-19T13:07:52;4.35;;;2.33;;
11344;SDS011;5727;42.600;23.028;2022-08-19T13:10:23;5.43;;;2.40;;
11344;SDS011;5727;42.600;23.028;2022-08-19T13:12:56;3.03;;;2.33;;
11344;SDS011;5727;42.600;23.028;2022-08-19T13:15:26;5.22;;;2.58;;
11344;SDS011;5727;42.600;23.028;2022-08-19T13:17:57;5.07;;;2.63;;
11344;SDS011;5727;42.600;23.028;2022-08-19T13:20:24;6.03;;;2.90;;
11344;SDS011;5727;42.600;23.028;2022-08-19T13:22:52;8.60;;;2.90;;
11344;SDS011;5727;42.600;23.028;2022-08-19T13:25:18;5.22;;;2.72;;
11344;SDS011;5727;42.600;23.028;2022-08-19T13:27:47;6.45;;;2.80;;
11344;SDS011;5727;42.600;23.028;2022-08-19T13:30:16;5.80;;;2.60;;
11344;SDS011;5727;42.600;23.028;2022-08-19T13:33:01;3.35;;;2.42;;
11344;SDS011;5727;42.600;23.028;2022-08-19T13:35:37;5.28;;;2.92;;
11344;SDS011;5727;42.600;23.028;2022-08-19T13:38:05;3.70;;;2.75;;
11344;SDS011;5727;42.600;23.028;2022-08-19T13:40:32;6.35;;;2.53;;
11344;SDS011;5727;42.600;23.028;2022-08-19T13:43:03;5.50;;;2.60;;
11344;SDS011;5727;42.600;23.028;2022-08-19T13:45:31;11.43;;;3.08;;
11344;SDS011;5727;42.600;23.028;2022-08-19T13:47:59;9.35;;;2.38;;
11344;SDS011;5727;42.600;23.028;2022-08-19T13:50:30;8.35;;;2.55;;
11344;SDS011;5727;42.600;23.028;2022-08-19T13:52:57;5.75;;;2.67;;
11344;SDS011;5727;42.600;23.028;2022-08-19T13:55:25;9.52;;;2.72;;
11344;SDS011;5727;42.600;23.028;2022-08-19T13:57:53;6.53;;;2.72;;
11344;SDS011;5727;42.600;23.028;2022-08-19T14:00:22;5.38;;;3.08;;
11344;SDS011;5727;42.600;23.028;2022-08-19T14:02:52;6.18;;;3.20;;
11344;SDS011;5727;42.600;23.028;2022-08-19T14:05:21;7.72;;;2.58;;
11344;SDS011;5727;42.600;23.028;2022-08-19T14:07:48;4.60;;;2.45;;
11344;SDS011;5727;42.600;23.028;2022-08-19T14:10:15;9.63;;;2.72;;
11344;SDS011;5727;42.600;23.028;2022-08-19T14:12:43;4.63;;;2.47;;
11344;SDS011;5727;42.600;23.028;2022-08-19T14:15:11;6.47;;;2.70;;
11344;SDS011;5727;42.600;23.028;2022-08-19T14:17:41;6.07;;;2.72;;
11344;SDS011;5727;42.600;23.028;2022-08-19T14:20:10;7.00;;;2.70;;
11344;SDS011;5727;42.600;23.028;2022-08-19T14:22:38;4.05;;;2.42;;
11344;SDS011;5727;42.600;23.028;2022-08-19T14:25:08;8.73;;;2.80;;
11344;SDS011;5727;42.600;23.028;2022-08-19T14:27:37;5.68;;;1.90;;
11344;SDS011;5727;42.600;23.028;2022-08-19T14:30:06;5.78;;;2.40;;
11344;SDS011;5727;42.600;23.028;2022-08-19T14:32:34;6.13;;;2.83;;
11344;SDS011;5727;42.600;23.028;2022-08-19T14:35:03;4.85;;;2.22;;
11344;SDS011;5727;42.600;23.028;2022-08-19T14:37:32;4.88;;;2.53;;
11344;SDS011;5727;42.600;23.028;2022-08-19T14:40:00;11.75;;;2.85;;
11344;SDS011;5727;42.600;23.028;2022-08-19T14:42:26;6.30;;;2.38;;
11344;SDS011;5727;42.600;23.028;2022-08-19T14:44:53;6.88;;;3.13;;
11344;SDS011;5727;42.600;23.028;2022-08-19T14:47:23;7.97;;;2.58;;
11344;SDS011;5727;42.600;23.028;2022-08-19T14:49:50;7.43;;;2.60;;
11344;SDS011;5727;42.600;23.028;2022-08-19T14:52:18;4.93;;;3.00;;
11344;SDS011;5727;42.600;23.028;2022-08-19T14:54:45;4.68;;;2.58;;